createdAt,value
2022-10-21T00:00:40.345Z,79.90
2022-10-21T00:03:07.692Z,80.10
2022-10-21T00:05:34.821Z,79.90
2022-10-21T00:08:01.859Z,79.90
2022-10-21T00:10:29.015Z,80.00
2022-10-21T00:12:56.123Z,80.00
2022-10-21T00:15:23.214Z,80.00
2022-10-21T00:17:50.352Z,80.00
2022-10-21T00:20:18.064Z,80.00
2022-10-21T00:22:45.600Z,80.10
2022-10-21T00:25:12.946Z,80.10
2022-10-21T00:27:40.483Z,80.10
2022-10-21T00:30:08.814Z,80.10
2022-10-21T00:32:36.222Z,80.10
2022-10-21T00:35:04.004Z,80.20
2022-10-21T00:37:32.114Z,80.30
2022-10-21T00:39:59.645Z,80.30
2022-10-21T00:42:40.747Z,80.30
2022-10-21T00:45:20.596Z,80.20
2022-10-21T00:48:12.551Z,80.40
2022-10-21T00:51:08.292Z,81.00
2022-10-21T00:53:37.620Z,80.40
2022-10-21T00:56:16.239Z,80.70
2022-10-21T00:58:46.713Z,80.50
2022-10-21T01:01:17.839Z,80.50
2022-10-21T01:03:48.223Z,80.40
2022-10-21T01:06:16.659Z,80.60
2022-10-21T01:08:43.923Z,80.40
2022-10-21T01:11:14.746Z,80.50
2022-10-21T01:13:56.867Z,80.60
2022-10-21T01:16:44.414Z,80.50
2022-10-21T01:19:35.885Z,80.60
2022-10-21T01:22:30.226Z,80.70
2022-10-21T01:25:24.621Z,80.60
2022-10-21T01:28:13.189Z,80.60
2022-10-21T01:30:45.779Z,80.80
2022-10-21T01:33:21.804Z,80.70
2022-10-21T01:35:48.902Z,80.70
2022-10-21T01:38:43.683Z,80.50
2022-10-21T01:41:35.631Z,80.60
2022-10-21T01:44:36.189Z,80.70
2022-10-21T01:47:09.923Z,80.60
2022-10-21T01:49:42.392Z,80.70
2022-10-21T01:52:10.636Z,80.80
2022-10-21T01:54:48.133Z,80.80
2022-10-21T01:57:18.734Z,80.80
2022-10-21T01:59:47.955Z,80.80
2022-10-21T02:02:17.266Z,80.90
2022-10-21T02:04:45.597Z,81.00
2022-10-21T02:07:12.726Z,81.00
2022-10-21T02:09:39.810Z,80.80
2022-10-21T02:12:07.856Z,80.80
2022-10-21T02:14:48.705Z,80.80
2022-10-21T02:17:22.080Z,81.00
2022-10-21T02:19:49.226Z,81.00
2022-10-21T02:22:20.823Z,80.90
2022-10-21T02:24:51.516Z,80.80
2022-10-21T02:27:19.559Z,81.10
2022-10-21T02:29:48.588Z,81.00
2022-10-21T02:32:52.452Z,81.10
2022-10-21T02:36:07.720Z,81.10
2022-10-21T02:38:44.124Z,81.10
2022-10-21T02:41:13.527Z,81.00
2022-10-21T02:43:43.200Z,81.10
2022-10-21T02:46:12.985Z,81.00
2022-10-21T02:48:43.945Z,81.10
2022-10-21T02:51:11.930Z,81.00
2022-10-21T02:53:39.184Z,81.20
2022-10-21T02:56:07.056Z,81.10
2022-10-21T02:58:37.627Z,81.00
2022-10-21T03:01:04.898Z,81.10
2022-10-21T03:03:32.060Z,81.10
2022-10-21T03:05:59.133Z,81.00
2022-10-21T03:08:26.313Z,80.90
2022-10-21T03:10:54.611Z,80.90
2022-10-21T03:13:22.720Z,80.90
2022-10-21T03:15:50.906Z,80.90
2022-10-21T03:18:18.407Z,80.90
2022-10-21T03:20:48.768Z,81.00
2022-10-21T03:23:16.564Z,81.00
2022-10-21T03:25:43.760Z,81.00
2022-10-21T03:28:11.179Z,81.00
2022-10-21T03:30:38.331Z,81.00
2022-10-21T03:33:05.707Z,81.10
2022-10-21T03:35:32.954Z,81.00
2022-10-21T03:38:00.066Z,81.00
2022-10-21T03:40:30.498Z,81.00
2022-10-21T03:42:58.279Z,81.10
2022-10-21T03:45:25.792Z,81.00
2022-10-21T03:47:53.068Z,81.00
2022-10-21T03:50:23.770Z,81.00
2022-10-21T03:52:52.620Z,81.00
2022-10-21T03:55:21.173Z,81.00
2022-10-21T03:57:52.440Z,81.10
2022-10-21T04:00:20.303Z,81.00
2022-10-21T04:02:47.773Z,81.00
2022-10-21T04:05:15.238Z,81.20
2022-10-21T04:07:42.600Z,81.20
2022-10-21T04:10:10.595Z,81.10
2022-10-21T04:12:38.010Z,81.30
2022-10-21T04:15:06.151Z,81.30
2022-10-21T04:17:33.445Z,81.20
2022-10-21T04:20:00.557Z,81.20
2022-10-21T04:22:27.676Z,81.40
2022-10-21T04:24:54.847Z,81.60
2022-10-21T04:27:21.935Z,81.50
2022-10-21T04:29:49.017Z,81.60
2022-10-21T04:32:16.157Z,81.60
2022-10-21T04:34:43.422Z,81.70
2022-10-21T04:37:10.533Z,81.60
2022-10-21T04:39:37.751Z,81.60
2022-10-21T04:42:05.552Z,82.00
2022-10-21T04:44:32.699Z,81.70
2022-10-21T04:46:59.839Z,81.70
2022-10-21T04:49:26.943Z,81.70
2022-10-21T04:51:54.063Z,81.60
2022-10-21T04:54:21.243Z,81.70
2022-10-21T04:56:48.436Z,81.60
2022-10-21T04:59:15.644Z,81.80
2022-10-21T05:01:42.775Z,81.90
2022-10-21T05:04:09.907Z,81.90
2022-10-21T05:06:36.988Z,81.70
2022-10-21T05:09:04.390Z,81.80
2022-10-21T05:11:31.638Z,81.80
2022-10-21T05:13:58.694Z,81.80
2022-10-21T05:16:25.963Z,81.60
2022-10-21T05:18:53.101Z,81.60
2022-10-21T05:21:20.510Z,81.80
2022-10-21T05:23:47.654Z,81.80
2022-10-21T05:26:14.743Z,81.50
2022-10-21T05:28:41.874Z,81.90
2022-10-21T05:31:09.013Z,81.70
2022-10-21T05:33:36.391Z,81.70
2022-10-21T05:36:07.844Z,81.60
2022-10-21T05:38:35.339Z,81.70
2022-10-21T05:41:03.090Z,81.50
2022-10-21T05:43:30.486Z,81.60
2022-10-21T05:45:58.079Z,81.60
2022-10-21T05:48:25.271Z,81.50
2022-10-21T05:50:54.442Z,81.60
2022-10-21T05:53:24.013Z,81.40
2022-10-21T05:56:02.275Z,81.50
2022-10-21T05:58:31.142Z,81.50
2022-10-21T06:00:59.028Z,81.50
2022-10-21T06:03:30.172Z,81.40
2022-10-21T06:05:58.449Z,81.60
2022-10-21T06:08:26.571Z,81.60
2022-10-21T06:11:11.605Z,81.40
2022-10-21T06:13:38.852Z,81.50
2022-10-21T06:16:07.430Z,81.40
2022-10-21T06:18:35.093Z,81.40
2022-10-21T06:21:02.514Z,81.40
2022-10-21T06:23:29.637Z,81.50
2022-10-21T06:26:00.611Z,81.40
2022-10-21T06:28:29.887Z,81.40
2022-10-21T06:30:57.357Z,81.40
2022-10-21T06:33:26.967Z,81.70
2022-10-21T06:35:55.616Z,81.40
2022-10-21T06:38:26.299Z,81.40
2022-10-21T06:41:00.410Z,81.40
2022-10-21T06:43:27.583Z,81.40
2022-10-21T06:46:03.029Z,81.60
2022-10-21T06:48:30.177Z,81.60
2022-10-21T06:51:09.602Z,81.50
2022-10-21T06:53:39.202Z,81.60
2022-10-21T06:56:18.422Z,81.60
2022-10-21T06:58:48.217Z,81.60
2022-10-21T07:01:33.660Z,81.90
2022-10-21T07:04:03.429Z,81.70
2022-10-21T07:06:31.050Z,81.70
2022-10-21T07:08:59.161Z,81.80
2022-10-21T07:11:28.346Z,82.10
2022-10-21T07:13:55.526Z,85.80
2022-10-21T07:16:25.856Z,83.60
2022-10-21T07:18:53.598Z,83.70
2022-10-21T07:21:23.422Z,83.50
2022-10-21T07:23:52.630Z,83.80
2022-10-21T07:26:21.613Z,83.60
2022-10-21T07:28:49.383Z,83.80
2022-10-21T07:31:20.953Z,83.30
2022-10-21T07:33:48.822Z,83.30
2022-10-21T07:36:23.480Z,83.20
2022-10-21T07:38:52.011Z,83.30
2022-10-21T07:41:31.970Z,83.50
2022-10-21T07:43:59.203Z,83.70
2022-10-21T07:46:26.657Z,83.60
2022-10-21T07:48:56.821Z,83.70
2022-10-21T07:51:28.553Z,83.80
2022-10-21T07:54:00.191Z,83.90
2022-10-21T07:56:33.541Z,84.00
2022-10-21T07:59:07.699Z,83.90
2022-10-21T08:01:40.472Z,84.10
2022-10-21T08:04:07.796Z,84.30
2022-10-21T08:06:35.289Z,84.70
2022-10-21T08:09:02.677Z,84.90
2022-10-21T08:11:33.018Z,85.40
2022-10-21T08:14:00.262Z,85.50
2022-10-21T08:16:27.729Z,86.10
2022-10-21T08:18:55.721Z,85.50
2022-10-21T08:21:22.926Z,85.80
2022-10-21T08:23:50.024Z,86.80
2022-10-21T08:26:17.290Z,86.10
2022-10-21T08:28:44.714Z,86.40
2022-10-21T08:31:14.303Z,86.80
2022-10-21T08:33:41.807Z,86.90
2022-10-21T08:36:23.367Z,86.60
2022-10-21T08:38:50.937Z,86.80
2022-10-21T08:41:27.310Z,86.30
2022-10-21T08:44:15.266Z,86.60
2022-10-21T08:47:00.502Z,86.60
2022-10-21T08:49:49.968Z,86.50
2022-10-21T08:52:21.636Z,86.60
2022-10-21T08:54:59.691Z,86.70
2022-10-21T08:57:27.649Z,87.20
2022-10-21T08:59:56.418Z,88.20
2022-10-21T09:02:59.179Z,87.70
2022-10-21T09:05:39.723Z,87.30
2022-10-21T09:08:16.197Z,86.60
2022-10-21T09:10:58.314Z,87.00
2022-10-21T09:13:37.377Z,86.80
2022-10-21T09:16:44.850Z,86.30
2022-10-21T09:19:31.222Z,86.20
2022-10-21T09:22:35.280Z,87.10
2022-10-21T09:25:15.253Z,87.20
2022-10-21T09:27:55.466Z,86.60
2022-10-21T09:30:23.724Z,86.20
2022-10-21T09:32:56.470Z,86.60
2022-10-21T09:35:26.637Z,86.10
2022-10-21T09:38:18.602Z,86.00
2022-10-21T09:40:48.493Z,85.80
2022-10-21T09:43:23.788Z,85.60
2022-10-21T09:45:50.986Z,86.00
2022-10-21T09:48:18.247Z,85.60
2022-10-21T09:51:07.019Z,85.70
2022-10-21T09:53:36.948Z,85.60
2022-10-21T09:56:11.779Z,85.50
2022-10-21T09:58:38.845Z,85.60
2022-10-21T10:01:06.792Z,88.00
2022-10-21T10:03:48.728Z,87.10
2022-10-21T10:06:32.292Z,87.50
2022-10-21T10:09:32.713Z,86.50
2022-10-21T10:12:04.792Z,86.30
2022-10-21T10:14:39.253Z,86.80
2022-10-21T10:17:31.979Z,86.60
2022-10-21T10:20:05.533Z,87.00
2022-10-21T10:22:34.189Z,86.50
2022-10-21T10:25:22.889Z,86.20
2022-10-21T10:28:05.151Z,86.10
2022-10-21T10:30:45.470Z,86.70
2022-10-21T10:33:35.706Z,86.20
2022-10-21T10:36:09.348Z,86.40
2022-10-21T10:38:45.243Z,90.80
2022-10-21T10:41:17.818Z,90.60
2022-10-21T10:43:46.024Z,90.50
2022-10-21T10:46:32.841Z,90.60
2022-10-21T10:49:05.922Z,90.60
2022-10-21T10:51:35.584Z,90.60
2022-10-21T10:54:16.530Z,91.00
2022-10-21T10:57:00.745Z,91.00
2022-10-21T10:59:30.618Z,91.00
2022-10-21T11:02:22.373Z,91.20
2022-10-21T11:05:11.216Z,91.30
2022-10-21T11:07:43.660Z,91.50
2022-10-21T11:10:34.460Z,91.30
2022-10-21T11:13:03.910Z,91.30
2022-10-21T11:15:55.337Z,91.50
2022-10-21T11:18:49.741Z,91.40
2022-10-21T11:21:25.784Z,91.50
2022-10-21T11:24:01.637Z,91.50
2022-10-21T11:26:52.162Z,91.60
2022-10-21T11:29:37.068Z,91.50
2022-10-21T11:32:21.797Z,91.60
2022-10-21T11:35:26.390Z,91.60
2022-10-21T11:38:14.875Z,91.70
2022-10-21T11:41:08.120Z,91.80
2022-10-21T11:44:16.765Z,91.60
2022-10-21T11:47:05.959Z,91.70
2022-10-21T11:49:49.513Z,91.80
2022-10-21T11:52:42.753Z,92.00
2022-10-21T11:55:35.163Z,91.60
2022-10-21T11:58:12.623Z,91.80
2022-10-21T12:01:03.423Z,91.70
2022-10-21T12:03:58.304Z,91.70
2022-10-21T12:06:53.117Z,91.90
2022-10-21T12:09:32.631Z,91.90
2022-10-21T12:12:14.951Z,91.80
2022-10-21T12:14:55.333Z,92.20
2022-10-21T12:17:24.006Z,91.90
2022-10-21T12:19:57.112Z,92.10
2022-10-21T12:22:27.247Z,92.00
2022-10-21T12:25:23.879Z,92.10
2022-10-21T12:28:08.899Z,92.10
2022-10-21T12:30:54.330Z,92.10
2022-10-21T12:33:43.498Z,92.10
2022-10-21T12:36:44.361Z,92.20
2022-10-21T12:39:34.514Z,92.10
2022-10-21T12:42:17.320Z,92.10
2022-10-21T12:44:49.746Z,92.10
2022-10-21T12:47:29.146Z,92.10
2022-10-21T12:50:14.186Z,92.10
2022-10-21T12:52:43.650Z,92.40
2022-10-21T12:55:26.179Z,92.30
2022-10-21T12:58:02.655Z,92.30
2022-10-21T13:00:29.958Z,92.30
2022-10-21T13:03:14.433Z,92.30
2022-10-21T13:05:41.535Z,92.20
2022-10-21T13:08:21.079Z,92.30
2022-10-21T13:11:06.114Z,92.20
2022-10-21T13:13:44.662Z,92.30
2022-10-21T13:16:20.986Z,92.40
2022-10-21T13:18:51.449Z,92.30
2022-10-21T13:21:39.365Z,92.30
2022-10-21T13:24:12.970Z,92.30
2022-10-21T13:26:51.365Z,92.20
2022-10-21T13:29:47.131Z,92.20
2022-10-21T13:32:14.167Z,92.10
2022-10-21T13:34:53.921Z,92.20
2022-10-21T13:37:34.792Z,92.20
2022-10-21T13:40:06.938Z,92.50
2022-10-21T13:42:39.616Z,92.30
2022-10-21T13:45:26.964Z,92.40
2022-10-21T13:48:05.631Z,92.20
2022-10-21T13:50:38.577Z,92.30
2022-10-21T13:53:18.423Z,92.20
2022-10-21T13:56:07.563Z,92.30
2022-10-21T13:58:39.580Z,92.30
2022-10-21T14:01:12.582Z,92.20
2022-10-21T14:03:40.632Z,92.20
2022-10-21T14:06:09.727Z,92.10
2022-10-21T14:08:43.765Z,92.20
2022-10-21T14:11:22.951Z,92.10
2022-10-21T14:13:51.576Z,92.30
2022-10-21T14:16:22.548Z,92.30
2022-10-21T14:18:52.824Z,92.30
2022-10-21T14:21:27.998Z,93.50
2022-10-21T14:23:58.032Z,92.80
2022-10-21T14:26:30.566Z,92.80
2022-10-21T14:29:00.612Z,92.80
2022-10-21T14:31:28.201Z,92.70
2022-10-21T14:33:55.593Z,92.70
2022-10-21T14:36:26.064Z,92.80
2022-10-21T14:39:00.632Z,92.70
2022-10-21T14:41:41.484Z,92.60
2022-10-21T14:44:19.280Z,92.50
2022-10-21T14:46:49.746Z,92.50
2022-10-21T14:49:47.919Z,92.40
2022-10-21T14:52:23.315Z,92.30
2022-10-21T14:55:00.795Z,92.30
2022-10-21T14:57:47.785Z,92.30
2022-10-21T15:00:30.387Z,92.20
2022-10-21T15:02:59.486Z,92.20
2022-10-21T15:05:38.057Z,92.20
2022-10-21T15:08:34.476Z,92.10
2022-10-21T15:11:12.120Z,92.10
2022-10-21T15:13:39.265Z,92.10
2022-10-21T15:16:19.412Z,92.10
2022-10-21T15:18:49.060Z,92.10
2022-10-21T15:21:45.324Z,92.10
2022-10-21T15:24:47.109Z,92.10
2022-10-21T15:27:37.130Z,92.10
2022-10-21T15:30:14.300Z,92.10
2022-10-21T15:32:41.466Z,92.20
2022-10-21T15:35:17.779Z,92.10
2022-10-21T15:37:51.744Z,92.00
2022-10-21T15:40:20.891Z,92.10
2022-10-21T15:42:48.415Z,92.00
2022-10-21T15:45:22.304Z,92.10
2022-10-21T15:47:54.167Z,92.00
2022-10-21T15:50:26.654Z,91.90
2022-10-21T15:55:26.083Z,92.00
2022-10-21T15:57:53.231Z,91.90
2022-10-21T16:00:23.067Z,91.80
2022-10-21T16:02:51.813Z,91.90
2022-10-21T16:05:21.355Z,91.90
2022-10-21T16:07:48.622Z,91.90
2022-10-21T16:10:26.039Z,91.80
2022-10-21T16:12:53.544Z,91.80
2022-10-21T16:15:21.183Z,91.80
2022-10-21T16:17:51.852Z,91.80
2022-10-21T16:20:24.208Z,91.70
2022-10-21T16:22:51.660Z,91.80
2022-10-21T16:25:19.536Z,91.80
2022-10-21T16:28:02.461Z,91.70
2022-10-21T16:30:35.235Z,92.00
2022-10-21T16:33:02.434Z,91.80
2022-10-21T16:35:29.547Z,91.70
2022-10-21T16:37:56.779Z,91.80
2022-10-21T16:40:26.299Z,91.80
2022-10-21T16:42:54.016Z,91.70
2022-10-21T16:45:23.882Z,91.70
2022-10-21T16:47:54.347Z,91.60
2022-10-21T16:50:33.030Z,91.60
2022-10-21T16:53:02.220Z,91.60
2022-10-21T16:55:29.414Z,91.50
2022-10-21T16:57:56.528Z,91.50
2022-10-21T17:00:23.891Z,91.60
2022-10-21T17:02:52.531Z,91.50
2022-10-21T17:05:19.899Z,91.60
2022-10-21T17:07:47.384Z,91.50
2022-10-21T17:10:14.807Z,91.40
2022-10-21T17:12:42.093Z,91.60
2022-10-21T17:15:12.935Z,91.60
2022-10-21T17:17:40.280Z,91.50
2022-10-21T17:20:08.102Z,91.60
2022-10-21T17:22:35.182Z,91.60
2022-10-21T17:25:02.361Z,91.70
2022-10-21T17:27:29.466Z,91.60
2022-10-21T17:29:56.626Z,91.70
2022-10-21T17:32:25.027Z,91.60
2022-10-21T17:34:52.172Z,91.60
2022-10-21T17:37:19.311Z,91.70
2022-10-21T17:39:46.976Z,91.70
2022-10-21T17:42:17.246Z,91.70
2022-10-21T17:44:44.777Z,91.70
2022-10-21T17:47:13.985Z,91.70
2022-10-21T17:49:41.825Z,91.80
2022-10-21T17:52:09.454Z,91.70
2022-10-21T17:54:36.717Z,91.70
2022-10-21T17:57:04.491Z,91.80
2022-10-21T17:59:32.924Z,91.80
2022-10-21T18:02:00.830Z,91.80
2022-10-21T18:04:28.746Z,91.80
2022-10-21T18:06:55.971Z,91.70
2022-10-21T18:09:23.373Z,91.80
2022-10-21T18:11:50.575Z,91.80
2022-10-21T18:14:17.746Z,91.70
2022-10-21T18:16:45.034Z,91.50
2022-10-21T18:19:12.981Z,91.40
2022-10-21T18:21:40.385Z,91.40
2022-10-21T18:24:12.206Z,91.30
2022-10-21T18:26:40.159Z,91.40
2022-10-21T18:29:07.306Z,91.30
2022-10-21T18:31:38.463Z,91.40
2022-10-21T18:34:06.716Z,91.40
2022-10-21T18:36:34.255Z,91.50
2022-10-21T18:39:02.809Z,91.40
2022-10-21T18:41:30.610Z,91.50
2022-10-21T18:44:01.773Z,91.60
2022-10-21T18:46:29.835Z,91.50
2022-10-21T18:48:58.127Z,91.40
2022-10-21T18:51:25.780Z,91.50
2022-10-21T18:53:53.562Z,91.40
2022-10-21T18:56:23.024Z,91.70
2022-10-21T18:58:51.106Z,91.40
2022-10-21T19:01:19.890Z,91.60
2022-10-21T19:03:47.177Z,91.40
2022-10-21T19:06:15.095Z,91.40
2022-10-21T19:08:42.520Z,91.30
2022-10-21T19:11:09.668Z,91.40
2022-10-21T19:13:36.910Z,91.40
2022-10-21T19:16:04.222Z,91.40
2022-10-21T19:18:31.391Z,91.40
2022-10-21T19:20:58.492Z,91.40
2022-10-21T19:23:27.876Z,91.50
2022-10-21T19:25:55.091Z,91.60
2022-10-21T19:28:22.251Z,91.40
2022-10-21T19:30:49.421Z,91.30
2022-10-21T19:33:16.570Z,91.20
2022-10-21T19:35:43.783Z,91.20
2022-10-21T19:38:11.443Z,91.40
2022-10-21T19:40:43.062Z,91.10
2022-10-21T19:43:10.358Z,91.10
2022-10-21T19:45:37.680Z,91.30
2022-10-21T19:48:04.946Z,91.00
2022-10-21T19:50:32.119Z,91.00
2022-10-21T19:52:59.473Z,91.00
2022-10-21T19:55:26.619Z,91.20
2022-10-21T19:57:54.262Z,90.90
2022-10-21T20:00:21.501Z,90.90
2022-10-21T20:02:48.627Z,90.90
2022-10-21T20:05:15.749Z,90.90
2022-10-21T20:07:43.022Z,90.80
2022-10-21T20:10:10.661Z,90.90
2022-10-21T20:12:38.492Z,90.90
2022-10-21T20:15:06.607Z,90.80
2022-10-21T20:17:33.776Z,90.80
2022-10-21T20:20:01.035Z,90.80
2022-10-21T20:22:28.151Z,90.80
2022-10-21T20:24:55.269Z,90.80
2022-10-21T20:27:22.467Z,90.90
2022-10-21T20:29:49.565Z,91.00
2022-10-21T20:32:16.777Z,90.80
2022-10-21T20:34:44.064Z,90.80
2022-10-21T20:37:11.215Z,90.70
2022-10-21T20:39:38.476Z,90.70
2022-10-21T20:42:05.602Z,90.80
2022-10-21T20:44:32.710Z,91.00
2022-10-21T20:46:59.946Z,90.90
2022-10-21T20:49:27.214Z,90.90
2022-10-21T20:51:54.312Z,90.80
2022-10-21T20:54:22.914Z,90.80
2022-10-21T20:56:50.144Z,91.10
2022-10-21T20:59:17.718Z,91.00
2022-10-21T21:01:46.915Z,90.80
2022-10-21T21:04:16.286Z,90.80
2022-10-21T21:06:48.271Z,90.80
2022-10-21T21:12:04.455Z,90.80
2022-10-21T21:14:32.280Z,90.70
2022-10-21T21:16:59.498Z,91.00
2022-10-21T21:19:26.665Z,90.80
2022-10-21T21:21:53.776Z,90.80
2022-10-21T21:24:21.021Z,90.80
2022-10-21T21:26:48.211Z,90.90
2022-10-21T21:29:15.416Z,90.90
2022-10-21T21:31:42.994Z,90.90
2022-10-21T21:34:11.064Z,90.70
2022-10-21T21:36:38.596Z,90.80
2022-10-21T21:39:06.808Z,90.70
2022-10-21T21:41:34.553Z,90.70
2022-10-21T21:44:01.658Z,90.70
2022-10-21T21:46:29.032Z,90.80
2022-10-21T21:49:01.117Z,90.70
2022-10-21T21:51:33.192Z,91.20
2022-10-21T21:54:00.503Z,91.10
2022-10-21T21:56:28.273Z,91.00
2022-10-21T21:58:58.087Z,91.00
2022-10-21T22:01:29.749Z,91.00
2022-10-21T22:03:57.751Z,91.00
2022-10-21T22:06:28.521Z,91.10
2022-10-21T22:08:55.992Z,91.30
2022-10-21T22:11:26.143Z,91.20
2022-10-21T22:13:53.902Z,91.20
2022-10-21T22:16:24.453Z,91.40
2022-10-21T22:18:51.931Z,91.40
2022-10-21T22:21:19.910Z,91.50
2022-10-21T22:23:50.909Z,91.40
2022-10-21T22:26:20.090Z,91.50
2022-10-21T22:28:47.405Z,91.70
2022-10-21T22:31:16.792Z,91.40
2022-10-21T22:33:44.826Z,91.90
2022-10-21T22:36:12.098Z,91.70
2022-10-21T22:38:39.269Z,91.80
2022-10-21T22:41:09.920Z,91.60
2022-10-21T22:43:39.487Z,91.50
2022-10-21T22:46:21.596Z,91.40
2022-10-21T22:48:53.826Z,91.40
2022-10-21T22:51:20.980Z,91.30
2022-10-21T22:53:53.435Z,91.20
2022-10-21T22:56:24.292Z,91.30
2022-10-21T22:58:51.446Z,91.30
2022-10-21T23:01:18.602Z,91.30
2022-10-21T23:03:45.732Z,91.20
2022-10-21T23:06:12.845Z,91.20
2022-10-21T23:08:39.960Z,91.10
2022-10-21T23:11:07.141Z,91.10
2022-10-21T23:13:34.273Z,91.40
2022-10-21T23:16:01.515Z,91.20
2022-10-21T23:18:28.650Z,91.30
2022-10-21T23:20:55.754Z,91.20
2022-10-21T23:23:22.884Z,91.10
2022-10-21T23:25:50.048Z,91.20
2022-10-21T23:30:45.670Z,91.70
2022-10-21T23:33:12.784Z,91.80
2022-10-21T23:35:40.172Z,91.60
2022-10-21T23:38:07.361Z,91.50
2022-10-21T23:40:34.935Z,91.40
2022-10-21T23:43:02.043Z,91.30
2022-10-21T23:45:29.154Z,91.50
2022-10-21T23:47:56.280Z,92.00
2022-10-21T23:50:23.511Z,91.50
2022-10-21T23:52:50.700Z,91.50
2022-10-21T23:55:17.997Z,91.40
2022-10-21T23:57:45.295Z,91.40
